Time;durP1;ratioP1;P1;durP2;ratioP2;P2;SDS_P1;SDS_P2;PMS_P1;PMS_P2;Temp;Humidity;BMP_temperature;BMP_pressure;BME280_temperature;BME280_humidity;BME280_pressure;Samples;Min_cycle;Max_cycle;Signal;HPM_P1;HPM_P2
2022/07/16 00:03:20;;;;;;;5.50;2.40;;;;;;;15.85;58.83;102041.38;4739548;30;20044;-91
2022/07/16 00:05:46;;;;;;;4.68;2.10;;;;;;;15.85;60.02;102041.38;4737100;30;20051;-91
2022/07/16 00:08:11;;;;;;;4.32;2.40;;;;;;;15.85;59.77;102039.59;4740498;30;20032;-92
2022/07/16 00:10:37;;;;;;;11.05;2.53;;;;;;;15.85;59.81;102036.94;4740115;30;20143;-90
2022/07/16 00:13:02;;;;;;;6.45;2.72;;;;;;;15.85;60.35;102044.06;4739208;30;20104;-90
2022/07/16 00:15:31;;;;;;;5.70;2.30;;;;;;;15.86;59.69;102040.47;4754750;30;20040;-91
2022/07/16 00:20:41;;;;;;;4.00;2.20;;;;;;;15.89;59.73;102041.25;4755031;30;20431;-90
2022/07/16 00:23:07;;;;;;;5.25;2.40;;;;;;;15.87;60.25;102039.56;4754595;30;20520;-89
2022/07/16 00:25:34;;;;;;;7.20;2.70;;;;;;;15.82;60.59;102047.66;4736878;30;20040;-90
2022/07/16 00:28:00;;;;;;;8.27;2.60;;;;;;;15.84;60.99;102043.19;4725018;30;20059;-92
2022/07/16 00:30:26;;;;;;;8.00;3.05;;;;;;;15.88;59.10;102050.22;4740036;30;20036;-90
2022/07/16 00:32:51;;;;;;;3.58;2.10;;;;;;;15.90;59.62;102045.72;4736645;30;20098;-90
2022/07/16 00:35:17;;;;;;;6.10;2.22;;;;;;;15.92;60.04;102040.31;4734387;30;20111;-92
2022/07/16 00:37:43;;;;;;;7.15;2.55;;;;;;;15.95;60.69;102044.69;4736510;30;20041;-90
2022/07/16 00:40:09;;;;;;;7.57;2.50;;;;;;;15.99;60.08;102033.03;4744144;30;20047;-90
2022/07/16 00:42:34;;;;;;;6.40;2.50;;;;;;;16.04;60.50;102032.00;4739244;30;20035;-91
2022/07/16 00:45:00;;;;;;;6.55;3.00;;;;;;;16.08;59.95;102036.34;4736755;30;20450;-91
2022/07/16 00:47:25;;;;;;;7.55;2.40;;;;;;;16.10;59.99;102039.00;4707581;30;20036;-92
2022/07/16 00:49:51;;;;;;;5.95;2.40;;;;;;;16.13;60.26;102041.56;4755030;30;20040;-91
2022/07/16 00:52:17;;;;;;;7.10;2.40;;;;;;;16.11;60.59;102044.28;4725267;30;20036;-91
2022/07/16 00:54:42;;;;;;;6.20;2.95;;;;;;;16.12;60.96;102042.47;4738502;30;20092;-92
2022/07/16 00:57:08;;;;;;;10.32;2.50;;;;;;;16.08;61.24;102036.34;4703440;30;20079;-91
2022/07/16 00:59:33;;;;;;;9.98;2.60;;;;;;;16.04;60.21;102029.31;4739429;30;20081;-90
2022/07/16 01:01:59;;;;;;;8.77;2.42;;;;;;;16.04;60.69;102031.13;4713020;30;20052;-91
2022/07/16 01:04:25;;;;;;;6.72;2.72;;;;;;;16.04;60.13;102039.13;4719043;30;20084;-92
2022/07/16 01:06:51;;;;;;;5.07;2.67;;;;;;;15.94;61.29;102030.47;4725186;30;20048;-90
2022/07/16 01:09:17;;;;;;;5.55;2.40;;;;;;;15.94;60.55;102030.47;4730838;30;20036;-92
2022/07/16 01:11:44;;;;;;;11.15;3.00;;;;;;;15.90;61.27;102037.69;4741705;30;20390;-91
2022/07/16 01:14:10;;;;;;;9.85;2.70;;;;;;;15.88;62.00;102042.19;4742538;30;20028;-90
2022/07/16 01:16:36;;;;;;;7.07;2.78;;;;;;;15.90;61.60;102032.34;4737801;30;20067;-91
2022/07/16 01:19:03;;;;;;;7.55;3.08;;;;;;;15.88;61.67;102030.63;4719377;30;20454;-91
2022/07/16 01:21:28;;;;;;;4.53;2.70;;;;;;;15.94;61.14;102024.25;4742746;30;20035;-92
2022/07/16 01:23:54;;;;;;;10.27;2.63;;;;;;;15.92;61.27;102021.63;4742989;30;20461;-91
2022/07/16 01:26:19;;;;;;;6.10;2.83;;;;;;;15.92;61.52;102021.63;4725431;30;20115;-91
2022/07/16 01:28:45;;;;;;;11.05;3.00;;;;;;;15.89;61.05;102037.72;4729060;30;20068;-92
2022/07/16 01:31:11;;;;;;;7.75;2.65;;;;;;;15.81;61.50;102029.91;4740197;30;20043;-91
2022/07/16 01:33:40;;;;;;;8.07;3.30;;;;;;;15.86;60.90;102037.81;4742089;30;20158;-90
2022/07/16 01:36:14;;;;;;;9.68;3.15;;;;;;;15.81;61.37;102031.69;4757161;30;20047;-90
2022/07/16 01:38:42;;;;;;;8.07;2.70;;;;;;;15.83;61.44;102035.22;4742063;30;20128;-90
2022/07/16 01:41:09;;;;;;;10.68;2.90;;;;;;;15.80;61.50;102028.16;4761222;30;20039;-91
2022/07/16 01:43:35;;;;;;;7.82;2.50;;;;;;;15.78;61.19;102029.13;4733457;30;20476;-91
2022/07/16 01:46:00;;;;;;;13.30;3.22;;;;;;;15.78;61.33;102030.00;4727489;30;20126;-91
2022/07/16 01:48:26;;;;;;;5.22;2.50;;;;;;;15.76;61.26;102025.59;4729611;30;20558;-91
2022/07/16 01:50:53;;;;;;;11.60;3.55;;;;;;;15.78;61.39;102035.34;4746355;30;20515;-91
2022/07/16 01:53:19;;;;;;;6.63;2.85;;;;;;;15.78;61.97;102050.47;4745557;30;20329;-89
2022/07/16 01:55:45;;;;;;;6.93;2.80;;;;;;;15.72;61.89;102038.13;4746671;30;20076;-90
2022/07/16 01:58:13;;;;;;;7.53;2.78;;;;;;;15.73;61.76;102039.03;4736998;30;20036;-90
2022/07/16 02:00:44;;;;;;;7.50;2.90;;;;;;;15.69;62.72;102035.50;4754056;30;20044;-91
2022/07/16 02:03:13;;;;;;;7.22;3.08;;;;;;;15.65;61.95;102032.06;4763370;30;20043;-92
2022/07/16 02:05:39;;;;;;;6.68;3.00;;;;;;;15.69;62.45;102036.41;4747413;30;20042;-91
2022/07/16 02:08:05;;;;;;;8.88;2.85;;;;;;;15.68;62.73;102034.63;4750317;30;20043;-91
2022/07/16 02:10:31;;;;;;;10.48;2.83;;;;;;;15.68;62.18;102034.63;4743799;30;20047;-92
2022/07/16 02:12:57;;;;;;;7.80;3.20;;;;;;;15.67;62.48;102026.66;4743963;30;20081;-91
2022/07/16 02:15:23;;;;;;;4.35;2.92;;;;;;;15.65;62.57;102024.03;4750883;30;20036;-90
2022/07/16 02:17:48;;;;;;;6.38;3.20;;;;;;;15.68;62.79;102017.75;4741635;30;20077;-91
2022/07/16 02:20:15;;;;;;;9.85;3.50;;;;;;;15.67;62.72;102016.84;4756536;30;20044;-90
2022/07/16 02:22:40;;;;;;;9.20;3.28;;;;;;;15.66;62.83;102017.78;4763725;30;20031;-91
2022/07/16 02:25:08;;;;;;;8.55;3.42;;;;;;;15.66;63.03;102016.91;4741421;30;20039;-91
2022/07/16 02:27:34;;;;;;;6.15;3.25;;;;;;;15.65;62.58;102024.03;4731432;30;20067;-91
2022/07/16 02:30:00;;;;;;;6.93;3.13;;;;;;;15.65;62.62;102018.69;4741435;30;20035;-90
2022/07/16 02:32:27;;;;;;;11.48;3.30;;;;;;;15.67;62.81;102026.66;4737966;30;20047;-90
2022/07/16 02:34:55;;;;;;;7.22;3.92;;;;;;;15.69;62.58;102019.50;4748846;30;20122;-91
2022/07/16 02:37:21;;;;;;;11.40;3.72;;;;;;;15.68;62.13;102017.75;4742329;30;20082;-91
2022/07/16 02:39:47;;;;;;;10.02;3.47;;;;;;;15.63;63.22;102023.19;4748726;30;20079;-92
2022/07/16 02:42:12;;;;;;;6.78;3.70;;;;;;;15.68;62.46;102017.75;4740790;30;20028;-91
2022/07/16 02:44:38;;;;;;;7.40;3.42;;;;;;;15.71;62.66;102011.50;4726588;30;20385;-91
2022/07/16 02:47:03;;;;;;;9.43;4.00;;;;;;;15.72;62.62;102011.44;4740618;30;20370;-91
2022/07/16 02:49:29;;;;;;;7.18;4.05;;;;;;;15.72;62.65;102015.91;4740730;30;20042;-92
2022/07/16 02:51:54;;;;;;;8.57;4.30;;;;;;;15.72;62.28;102008.75;4723744;30;20055;-89
2022/07/16 02:54:20;;;;;;;12.48;4.40;;;;;;;15.76;62.17;102012.25;4735247;30;20036;-90
2022/07/16 02:56:45;;;;;;;7.47;4.47;;;;;;;15.75;62.33;102005.13;4740598;30;20042;-90
2022/07/16 02:59:11;;;;;;;7.95;4.55;;;;;;;15.77;62.08;102006.84;4723545;30;20439;-90
2022/07/16 03:01:36;;;;;;;8.95;4.57;;;;;;;15.79;61.62;102014.84;4744709;30;20051;-90
2022/07/16 03:04:02;;;;;;;7.50;4.90;;;;;;;15.80;61.79;102022.81;4740449;30;20081;-91
2022/07/16 03:06:28;;;;;;;8.95;5.40;;;;;;;15.79;62.29;102009.50;4740312;30;20055;-90
2022/07/16 03:08:56;;;;;;;9.75;5.10;;;;;;;15.79;62.13;102017.50;4733713;30;20386;-90
2022/07/16 03:11:21;;;;;;;7.78;5.05;;;;;;;15.78;62.05;102019.31;4723470;30;20095;-90
2022/07/16 03:13:47;;;;;;;8.00;4.72;;;;;;;15.77;62.09;102017.53;4731741;30;20044;-90
2022/07/16 03:16:13;;;;;;;9.85;5.05;;;;;;;15.78;62.15;102013.97;4754755;30;20079;-90
2022/07/16 03:18:38;;;;;;;9.00;4.80;;;;;;;15.78;62.63;102018.44;4740240;30;20040;-90
2022/07/16 03:21:04;;;;;;;8.63;5.15;;;;;;;15.80;62.72;102035.28;4760591;30;20046;-91
2022/07/16 03:23:29;;;;;;;11.27;4.95;;;;;;;15.79;62.47;102031.72;4725199;30;20026;-89
2022/07/16 03:25:55;;;;;;;8.27;4.93;;;;;;;15.79;62.38;102030.88;4755599;30;20132;-90
2022/07/16 03:28:20;;;;;;;12.50;4.80;;;;;;;15.80;63.14;102041.50;4725203;30;20071;-91
2022/07/16 03:30:46;;;;;;;9.40;4.70;;;;;;;15.80;63.14;102030.84;4739587;30;20054;-90
2022/07/16 03:33:11;;;;;;;10.00;4.88;;;;;;;15.83;63.27;102038.75;4727184;30;20032;-91
2022/07/16 03:35:37;;;;;;;7.57;4.60;;;;;;;15.81;63.56;102047.72;4736678;30;20076;-91
2022/07/16 03:40:46;;;;;;;9.30;4.70;;;;;;;15.84;64.01;102045.84;4743939;30;20060;-90
2022/07/16 03:43:12;;;;;;;7.22;4.40;;;;;;;15.86;64.12;102037.81;4740429;30;20418;-91
2022/07/16 03:45:38;;;;;;;7.80;4.03;;;;;;;15.87;64.07;102047.56;4754014;30;20438;-89
2022/07/16 03:48:03;;;;;;;7.18;4.40;;;;;;;15.88;64.66;102046.66;4759787;30;20192;-90
2022/07/16 03:50:29;;;;;;;6.97;4.28;;;;;;;15.92;64.60;102053.66;4724362;30;20157;-89
2022/07/16 03:52:55;;;;;;;8.18;4.13;;;;;;;15.92;64.65;102053.66;4754289;30;20123;-90
2022/07/16 03:55:20;;;;;;;9.32;4.00;;;;;;;15.91;65.30;102057.28;4723477;30;20107;-90
2022/07/16 03:57:46;;;;;;;9.80;3.67;;;;;;;15.94;65.16;102062.53;4714691;30;20044;-90
2022/07/16 04:00:13;;;;;;;8.60;4.18;;;;;;;15.94;65.50;102064.31;4731040;30;20053;-90
2022/07/16 04:02:38;;;;;;;7.43;3.83;;;;;;;15.95;66.29;102074.09;4736629;30;20044;-89
2022/07/16 04:05:04;;;;;;;7.32;3.53;;;;;;;15.95;66.00;102068.75;4736455;30;20058;-91
2022/07/16 04:07:30;;;;;;;8.88;4.03;;;;;;;15.96;66.90;102073.19;4734077;30;20119;-92
2022/07/16 04:09:56;;;;;;;7.03;3.45;;;;;;;15.94;66.89;102069.66;4730769;30;20051;-91
2022/07/16 04:12:25;;;;;;;7.63;3.50;;;;;;;15.95;67.44;102076.75;4753604;30;20122;-90
2022/07/16 04:14:51;;;;;;;10.07;3.60;;;;;;;15.94;67.58;102083.03;4753664;30;20043;-91
2022/07/16 04:17:17;;;;;;;8.00;3.58;;;;;;;15.93;67.49;102075.94;4753382;30;20039;-90
2022/07/16 04:19:43;;;;;;;8.52;3.05;;;;;;;15.93;67.36;102078.63;4753515;30;20386;-91
2022/07/16 04:22:08;;;;;;;6.75;3.15;;;;;;;15.90;68.34;102072.44;4725639;30;20047;-92
2022/07/16 04:24:34;;;;;;;12.63;3.60;;;;;;;15.96;69.49;102086.53;4739155;30;20027;-90
2022/07/16 04:26:59;;;;;;;7.28;3.33;;;;;;;15.94;69.99;102081.22;4747380;30;20269;-90
2022/07/16 04:29:25;;;;;;;14.60;3.83;;;;;;;15.96;70.04;102087.41;4753559;30;20047;-91
2022/07/16 04:31:51;;;;;;;7.55;3.50;;;;;;;15.97;70.04;102090.97;4734957;30;20036;-90
2022/07/16 04:34:16;;;;;;;6.95;3.80;;;;;;;15.89;71.61;102086.69;4738899;30;20078;-91
2022/07/16 04:36:42;;;;;;;9.98;4.28;;;;;;;15.92;71.23;102091.06;4738984;30;20070;-91
2022/07/16 04:39:08;;;;;;;13.52;4.38;;;;;;;15.89;72.60;102092.03;4738900;30;20048;-90
2022/07/16 04:41:33;;;;;;;8.65;3.70;;;;;;;15.92;72.81;102099.09;4758706;30;20122;-90
2022/07/16 04:43:59;;;;;;;9.52;3.70;;;;;;;15.90;72.78;102099.13;4725372;30;20546;-90
2022/07/16 04:46:24;;;;;;;8.20;3.47;;;;;;;15.91;71.07;102094.66;4742177;30;20047;-90
2022/07/16 04:48:50;;;;;;;11.63;4.43;;;;;;;15.87;74.03;102091.22;4724266;30;20024;-90
2022/07/16 04:51:15;;;;;;;10.23;4.00;;;;;;;15.95;73.68;102098.13;4731342;30;20044;-90
2022/07/16 04:53:41;;;;;;;8.18;3.85;;;;;;;15.99;74.29;102106.03;4739384;30;20042;-92
2022/07/16 04:56:07;;;;;;;6.60;3.72;;;;;;;16.05;74.13;102110.38;4743133;30;20047;-91
2022/07/16 04:58:32;;;;;;;10.20;3.78;;;;;;;16.06;73.78;102104.97;4743675;30;20071;-92
2022/07/16 05:00:58;;;;;;;12.02;4.30;;;;;;;16.15;75.15;102109.22;4742366;30;20024;-90
2022/07/16 05:03:27;;;;;;;11.60;3.70;;;;;;;16.20;75.26;102115.34;4727252;30;20081;-89
2022/07/16 05:05:52;;;;;;;8.13;3.38;;;;;;;16.33;76.43;102121.25;4742809;30;20020;-90
2022/07/16 05:08:18;;;;;;;11.00;3.35;;;;;;;16.41;76.22;102119.25;4742070;30;20051;-90
2022/07/16 05:10:44;;;;;;;6.82;3.03;;;;;;;16.47;75.95;102112.88;4727973;30;20066;-91
2022/07/16 05:13:13;;;;;;;8.40;3.10;;;;;;;16.55;75.89;102111.75;4727501;30;20126;-90
2022/07/16 05:15:38;;;;;;;10.52;3.78;;;;;;;16.63;75.47;102119.56;4742395;30;20389;-92
2022/07/16 05:18:07;;;;;;;9.35;3.30;;;;;;;16.68;76.02;102120.31;4716908;30;20032;-89
2022/07/16 05:20:33;;;;;;;8.50;3.17;;;;;;;16.77;76.17;102128.09;4763114;30;20122;-91
2022/07/16 05:22:59;;;;;;;9.02;3.35;;;;;;;16.85;76.43;102127.91;4746196;30;20132;-88
2022/07/16 05:25:24;;;;;;;7.45;3.00;;;;;;;16.93;76.56;102123.22;4756091;30;20043;-90
2022/07/16 05:27:50;;;;;;;13.68;3.38;;;;;;;16.94;75.82;102114.28;4755958;30;20087;-90
2022/07/16 05:30:15;;;;;;;6.63;2.80;;;;;;;17.03;75.76;102131.00;4727299;30;20109;-90
2022/07/16 05:32:42;;;;;;;10.15;3.40;;;;;;;17.08;76.14;102124.59;4739125;30;20490;-90
2022/07/16 05:35:10;;;;;;;11.52;3.20;;;;;;;17.17;75.38;102126.13;4726894;30;20031;-90
2022/07/16 05:37:35;;;;;;;9.63;3.25;;;;;;;17.27;74.64;102132.09;4724074;30;20044;-89
2022/07/16 05:40:02;;;;;;;8.80;3.00;;;;;;;17.32;74.80;102133.72;4741260;30;20449;-88
2022/07/16 05:42:28;;;;;;;9.10;2.70;;;;;;;17.39;74.18;102129.06;4752530;30;20055;-90
2022/07/16 05:44:56;;;;;;;8.70;2.83;;;;;;;17.46;73.64;102137.75;4741238;30;20542;-91
2022/07/16 05:47:22;;;;;;;6.68;2.55;;;;;;;17.52;72.93;102132.25;4740734;30;20048;-89
2022/07/16 05:49:47;;;;;;;8.27;2.85;;;;;;;17.53;72.93;102131.31;4734732;30;20036;-91
2022/07/16 05:52:13;;;;;;;7.93;2.85;;;;;;;17.53;73.23;102142.00;4741242;30;20036;-91
2022/07/16 05:54:39;;;;;;;6.75;2.60;;;;;;;17.54;72.47;102143.78;4741235;30;20040;-90
2022/07/16 05:57:04;;;;;;;6.43;2.40;;;;;;;17.56;72.08;102141.94;4725887;30;20423;-90
2022/07/16 05:59:30;;;;;;;6.20;2.28;;;;;;;17.58;72.26;102151.69;4741893;30;20049;-91
2022/07/16 06:01:55;;;;;;;8.00;2.35;;;;;;;17.62;72.13;102147.97;4757110;30;20048;-91
2022/07/16 06:04:21;;;;;;;5.63;2.25;;;;;;;17.69;72.25;102150.47;4730101;30;20126;-91
2022/07/16 06:06:46;;;;;;;6.38;2.10;;;;;;;17.73;71.76;102147.66;4727703;30;20126;-92
2022/07/16 06:09:12;;;;;;;12.52;2.65;;;;;;;17.83;70.97;102153.66;4753478;30;20094;-89
2022/07/16 06:11:38;;;;;;;5.85;2.00;;;;;;;17.88;70.27;102159.75;4738326;30;20043;-88
2022/07/16 06:14:04;;;;;;;4.68;2.50;;;;;;;17.92;69.65;102163.19;4736915;30;20086;-89
2022/07/16 06:16:30;;;;;;;4.53;1.83;;;;;;;17.98;70.40;102168.38;4741002;30;20062;-89
2022/07/16 06:18:55;;;;;;;4.57;1.73;;;;;;;18.00;69.31;102172.75;4726672;30;20186;-89
2022/07/16 06:21:21;;;;;;;6.75;1.70;;;;;;;18.09;69.15;102168.00;4725244;30;20067;-89
2022/07/16 06:23:46;;;;;;;5.95;2.00;;;;;;;18.19;68.37;102175.69;4755505;30;20092;-90
2022/07/16 06:26:12;;;;;;;7.22;2.03;;;;;;;18.29;67.91;102170.91;4715351;30;20204;-92
2022/07/16 06:28:37;;;;;;;7.50;2.30;;;;;;;18.41;67.74;102175.88;4740585;30;20039;-90
2022/07/16 06:31:03;;;;;;;10.35;1.90;;;;;;;18.49;67.12;102180.97;4711365;30;20146;-89
2022/07/16 06:33:29;;;;;;;5.47;1.90;;;;;;;18.56;65.67;102189.69;4725738;30;20055;-89
2022/07/16 06:35:54;;;;;;;6.72;2.22;;;;;;;18.60;64.35;102184.19;4754870;30;20027;-89
2022/07/16 06:38:20;;;;;;;8.15;1.50;;;;;;;18.62;63.53;102190.38;4734973;30;20040;-89
2022/07/16 06:40:45;;;;;;;6.55;1.52;;;;;;;18.59;63.51;102194.97;4739738;30;20024;-90
2022/07/16 06:43:11;;;;;;;5.47;1.55;;;;;;;18.63;63.68;102200.16;4756023;30;20119;-90
2022/07/16 06:45:42;;;;;;;4.97;1.40;;;;;;;18.64;63.31;102199.25;4712922;30;20131;-90
2022/07/16 06:48:08;;;;;;;6.32;1.58;;;;;;;18.73;62.51;102206.09;4733741;30;20473;-89
2022/07/16 06:50:34;;;;;;;4.72;1.60;;;;;;;18.73;61.71;102195.38;4740447;30;20055;-88
2022/07/16 06:52:59;;;;;;;6.10;1.83;;;;;;;18.72;62.34;102201.69;4708057;30;20494;-90
2022/07/16 06:55:25;;;;;;;10.45;2.42;;;;;;;18.73;62.24;102197.19;4723477;30;20093;-89
2022/07/16 06:57:50;;;;;;;3.08;1.90;;;;;;;18.69;59.89;102210.72;4744013;30;20048;-90
2022/07/16 07:00:16;;;;;;;3.05;1.40;;;;;;;18.65;59.58;102213.53;4756484;30;20035;-91
2022/07/16 07:02:41;;;;;;;6.75;2.28;;;;;;;18.69;59.78;102220.53;4768085;30;20508;-89
2022/07/16 07:05:07;;;;;;;9.35;1.70;;;;;;;18.77;59.26;102231.03;4755251;30;20109;-89
2022/07/16 07:07:33;;;;;;;9.02;1.90;;;;;;;18.86;59.74;102225.38;4721661;30;20078;-89
2022/07/16 07:09:58;;;;;;;4.85;1.67;;;;;;;18.96;59.39;102232.16;4725580;30;20062;-89
2022/07/16 07:12:24;;;;;;;3.42;1.30;;;;;;;19.01;59.12;102237.38;4724687;30;20530;-90
2022/07/16 07:14:50;;;;;;;6.97;1.70;;;;;;;19.02;58.04;102248.06;4728168;30;20044;-89
2022/07/16 07:17:15;;;;;;;7.65;1.48;;;;;;;19.02;58.40;102236.47;4712334;30;20499;-90
2022/07/16 07:19:41;;;;;;;5.45;1.50;;;;;;;19.09;58.03;102251.44;4747563;30;20486;-89
2022/07/16 07:22:06;;;;;;;5.95;1.55;;;;;;;19.15;57.12;102250.34;4730608;30;20044;-90
2022/07/16 07:24:32;;;;;;;6.15;1.50;;;;;;;19.29;58.09;102250.72;4731605;30;20036;-89
2022/07/16 07:26:58;;;;;;;4.63;1.33;;;;;;;19.39;55.73;102248.59;4721835;30;20497;-90
2022/07/16 07:29:25;;;;;;;6.43;1.60;;;;;;;19.50;55.55;102249.91;4709980;30;20381;-90
2022/07/16 07:31:51;;;;;;;4.65;1.77;;;;;;;19.57;55.55;102255.97;4739267;30;20067;-90
2022/07/16 07:34:17;;;;;;;7.22;1.60;;;;;;;19.52;55.42;102253.44;4739021;30;20119;-90
2022/07/16 07:36:42;;;;;;;8.90;1.60;;;;;;;19.54;55.88;102262.31;4737037;30;20056;-89
2022/07/16 07:39:08;;;;;;;4.97;1.80;;;;;;;19.65;56.38;102250.28;4739909;30;20054;-90
2022/07/16 07:41:33;;;;;;;5.25;1.70;;;;;;;19.72;55.65;102255.41;4740024;30;20031;-90
2022/07/16 07:43:59;;;;;;;4.43;1.63;;;;;;;19.82;54.92;102269.38;4710843;30;20404;-89
2022/07/16 07:46:25;;;;;;;2.75;1.30;;;;;;;19.79;53.78;102257.88;4753843;30;20103;-90
2022/07/16 07:48:51;;;;;;;6.97;1.75;;;;;;;19.80;53.11;102265.00;4739591;30;20042;-90
2022/07/16 07:51:16;;;;;;;3.67;1.65;;;;;;;19.84;53.30;102262.13;4707715;30;20036;-90
2022/07/16 07:53:42;;;;;;;4.15;1.50;;;;;;;19.91;53.96;102260.09;4750818;30;20047;-90
2022/07/16 07:56:12;;;;;;;5.00;1.80;;;;;;;19.96;53.98;102264.34;4739669;30;20038;-89
2022/07/16 07:58:38;;;;;;;7.70;1.75;;;;;;;20.01;53.26;102268.69;4739800;30;20074;-90
2022/07/16 08:01:04;;;;;;;5.13;1.60;;;;;;;20.07;53.06;102274.69;4724624;30;20028;-91
2022/07/16 08:03:30;;;;;;;4.50;1.55;;;;;;;20.11;52.12;102276.31;4739583;30;20039;-90
2022/07/16 08:05:55;;;;;;;8.07;1.63;;;;;;;20.17;52.29;102277.88;4740047;30;20043;-90
2022/07/16 08:08:21;;;;;;;4.35;1.55;;;;;;;20.34;52.95;102277.22;4710497;30;20035;-90
2022/07/16 08:10:47;;;;;;;6.65;1.60;;;;;;;20.53;53.00;102272.84;4739401;30;20350;-89
2022/07/16 08:13:12;;;;;;;4.88;1.65;;;;;;;20.56;51.36;102282.66;4738439;30;20096;-89
2022/07/16 08:15:38;;;;;;;3.22;1.30;;;;;;;20.50;50.69;102269.41;4709823;30;20039;-91
2022/07/16 08:18:03;;;;;;;8.50;2.03;;;;;;;20.56;50.66;102283.53;4724220;30;20046;-91
2022/07/16 08:20:29;;;;;;;5.82;1.58;;;;;;;20.57;49.15;102282.59;4749589;30;20047;-90
2022/07/16 08:22:55;;;;;;;5.72;1.73;;;;;;;20.65;49.67;102286.75;4724160;30;20067;-91
2022/07/16 08:28:04;;;;;;;4.90;1.55;;;;;;;20.58;48.67;102296.94;4766452;30;20142;-90
2022/07/16 08:30:30;;;;;;;3.25;1.63;;;;;;;20.56;48.34;102296.97;4732510;30;20139;-90
2022/07/16 08:32:56;;;;;;;4.22;1.45;;;;;;;20.68;47.85;102292.91;4732544;30;20055;-91
2022/07/16 08:35:45;;;;;;;;;;;;;;;;;;;;;
2022/07/16 08:38:20;;;;;;;7.15;1.30;;;;;;;21.18;47.63;102297.09;4757487;30;20079;-92
2022/07/16 08:40:46;;;;;;;4.93;1.67;;;;;;;21.43;46.72;102305.00;4752668;30;20090;-90
2022/07/16 08:43:13;;;;;;;6.70;1.70;;;;;;;21.60;46.35;102307.81;4740565;30;20032;-90
2022/07/16 08:45:40;;;;;;;7.13;2.30;;;;;;;21.77;46.29;102319.69;4740315;30;20036;-90
2022/07/16 08:48:06;;;;;;;4.85;1.55;;;;;;;21.90;46.20;102313.63;4724579;30;20043;-92
2022/07/16 08:50:35;;;;;;;4.00;1.35;;;;;;;21.86;45.58;102324.66;4758680;30;20389;-90
2022/07/16 08:53:24;;;;;;;8.50;1.73;;;;;;;21.60;45.77;102325.81;4727786;30;20052;-90
2022/07/16 08:55:52;;;;;;;4.93;1.30;;;;;;;21.47;46.20;102320.97;4752946;30;20127;-90
2022/07/16 08:58:18;;;;;;;4.35;1.63;;;;;;;21.24;46.13;102330.06;4760250;30;20187;-90
2022/07/16 09:00:45;;;;;;;8.23;1.83;;;;;;;21.12;46.39;102333.25;4737950;30;20023;-91
2022/07/16 09:03:18;;;;;;;7.75;1.48;;;;;;;21.36;47.37;102335.84;4753971;30;20050;-89
2022/07/16 09:05:43;;;;;;;8.02;1.73;;;;;;;;;;4746082;30;20422;-89
2022/07/16 09:08:09;;;;;;;3.30;1.20;;;;;;;21.57;46.29;102334.06;4741217;30;20050;-90
2022/07/16 09:10:37;;;;;;;7.25;1.52;;;;;;;21.74;46.09;102330.63;4739217;30;20036;-90
2022/07/16 09:13:05;;;;;;;7.47;1.65;;;;;;;22.00;44.90;102334.81;4739237;30;20056;-89
2022/07/16 09:15:34;;;;;;;5.75;1.50;;;;;;;22.24;44.31;102332.81;4718004;30;20510;-90
2022/07/16 09:18:11;;;;;;;5.93;1.67;;;;;;;22.50;44.37;102334.25;4735890;30;20048;-89
2022/07/16 09:20:46;;;;;;;4.85;1.60;;;;;;;22.77;43.67;102334.72;4762517;30;20071;-90
2022/07/16 09:23:46;;;;;;;4.60;1.30;;;;;;;22.81;43.13;102340.88;4752572;30;20036;-90
2022/07/16 09:26:12;;;;;;;5.63;1.80;;;;;;;22.53;42.49;102334.13;4737085;30;20051;-90
2022/07/16 09:28:47;;;;;;;4.13;1.35;;;;;;;22.58;43.66;102340.19;4753137;30;20042;-90
2022/07/16 09:31:35;;;;;;;3.78;1.40;;;;;;;22.82;43.59;102348.88;4755788;30;20039;-89
2022/07/16 09:34:11;;;;;;;7.03;1.73;;;;;;;22.74;43.34;102346.56;4742751;30;20048;-89
2022/07/16 09:36:38;;;;;;;6.05;1.63;;;;;;;22.75;42.37;102340.22;4751302;30;20032;-89
2022/07/16 09:39:06;;;;;;;4.05;1.35;;;;;;;22.64;42.64;102345.25;4755537;30;20027;-89
2022/07/16 09:41:43;;;;;;;3.80;1.58;;;;;;;22.44;43.80;102351.63;4755487;30;20074;-90
2022/07/16 09:44:18;;;;;;;5.53;1.80;;;;;;;22.24;43.10;102349.88;4729822;30;20059;-90
2022/07/16 09:47:16;;;;;;;4.15;1.50;;;;;;;22.42;43.30;102350.81;4776316;30;20445;-90
2022/07/16 09:49:50;;;;;;;3.53;1.63;;;;;;;22.79;42.13;102358.97;4733783;30;20101;-90
2022/07/16 09:52:29;;;;;;;3.95;1.40;;;;;;;23.13;40.67;102355.50;4748900;30;20054;-91
2022/07/16 09:54:55;;;;;;;3.17;1.42;;;;;;;23.27;38.34;102360.16;4755550;30;20127;-89
2022/07/16 09:57:26;;;;;;;4.47;1.25;;;;;;;23.42;38.89;102361.22;4755461;30;20481;-90
2022/07/16 09:59:52;;;;;;;;;;;;;;;23.58;40.90;102367.56;4728998;30;20492;-90
2022/07/16 10:02:18;;;;;;;2.95;1.30;;;;;;;23.47;38.38;102359.16;4741935;30;19917;-91
2022/07/16 10:04:44;;;;;;;4.13;1.25;;;;;;;23.49;39.38;102368.94;4740306;30;20046;-89
2022/07/16 10:07:09;;;;;;;5.00;1.50;;;;;;;23.17;39.40;102370.59;4740041;30;20473;-92
2022/07/16 10:09:36;;;;;;;5.40;1.65;;;;;;;22.99;39.40;102372.38;4741105;30;20040;-91
2022/07/16 10:12:07;;;;;;;6.05;1.48;;;;;;;23.14;39.70;102378.84;4741118;30;20054;-91
2022/07/16 10:14:35;;;;;;;3.75;1.52;;;;;;;23.34;39.47;102372.41;4755655;30;20044;-89
2022/07/16 10:17:11;;;;;;;3.38;1.30;;;;;;;23.13;38.46;102375.28;4741081;30;20153;-91
2022/07/16 10:19:36;;;;;;;4.60;1.30;;;;;;;23.21;38.86;102368.59;4740076;30;20063;-88
2022/07/16 10:22:19;;;;;;;3.22;1.33;;;;;;;22.88;39.56;102378.28;4740417;30;20070;-89
2022/07/16 10:24:52;;;;;;;7.30;1.77;;;;;;;22.58;39.14;102380.66;4741891;30;20130;-90
2022/07/16 10:27:24;;;;;;;3.38;1.40;;;;;;;22.54;39.15;102390.72;4741061;30;20127;-90
2022/07/16 10:29:50;;;;;;;2.83;0.95;;;;;;;22.84;39.29;102386.63;4754937;30;20056;-89
2022/07/16 10:32:28;;;;;;;2.58;1.30;;;;;;;23.17;38.88;102379.59;4740370;30;20028;-90
2022/07/16 10:35:00;;;;;;;7.65;1.60;;;;;;;23.66;38.55;102388.81;4741689;30;20063;-90
2022/07/16 10:37:30;;;;;;;9.15;1.23;;;;;;;23.46;37.88;102382.59;4737265;30;20040;-90
2022/07/16 10:40:06;;;;;;;3.13;1.40;;;;;;;23.72;37.47;102383.97;4735506;30;20036;-90
2022/07/16 10:42:33;;;;;;;2.80;1.42;;;;;;;23.61;36.47;102395.34;4754033;30;20043;-91
2022/07/16 10:44:59;;;;;;;6.13;1.65;;;;;;;23.48;37.50;102393.34;4754713;30;20034;-91
2022/07/16 10:47:45;;;;;;;5.22;1.50;;;;;;;23.18;37.73;102393.97;4711458;30;20040;-91
2022/07/16 10:50:18;;;;;;;5.78;1.70;;;;;;;22.76;39.14;102389.69;4738433;30;20044;-90
2022/07/16 10:52:46;;;;;;;4.60;1.67;;;;;;;23.20;39.75;102393.91;4739649;30;20066;-90
2022/07/16 10:55:18;;;;;;;9.68;1.75;;;;;;;23.30;37.56;102403.28;4739567;30;20042;-91
2022/07/16 10:57:44;;;;;;;4.68;1.58;;;;;;;22.98;36.96;102408.47;4754799;30;20130;-90
2022/07/16 11:00:09;;;;;;;4.10;1.23;;;;;;;23.14;38.65;102404.03;4739966;30;20131;-89
2022/07/16 11:02:40;;;;;;;3.38;1.63;;;;;;;23.50;38.32;102407.66;4739502;30;20063;-91
2022/07/16 11:05:08;;;;;;;4.13;1.40;;;;;;;23.91;37.52;102400.13;4744040;30;20060;-92
2022/07/16 11:07:35;;;;;;;4.50;1.40;;;;;;;24.39;37.22;102409.22;4710711;30;20031;-91
2022/07/16 11:10:01;;;;;;;4.13;1.40;;;;;;;24.73;35.04;102403.75;4731443;30;20061;-89
2022/07/16 11:12:31;;;;;;;4.38;1.45;;;;;;;24.53;34.53;102410.31;4739240;30;20126;-90
2022/07/16 11:14:59;;;;;;;3.53;1.63;;;;;;;24.15;35.46;102403.31;4740482;30;20126;-91
2022/07/16 11:17:27;;;;;;;6.68;1.10;;;;;;;23.99;36.45;102408.69;4740384;30;20123;-90
2022/07/16 11:19:55;;;;;;;5.07;1.63;;;;;;;24.36;36.39;102401.28;4739962;30;20034;-90
2022/07/16 11:22:23;;;;;;;3.63;1.55;;;;;;;24.95;35.40;102409.72;4754145;30;20066;-89
2022/07/16 11:24:56;;;;;;;3.58;1.40;;;;;;;25.08;35.54;102402.63;4753489;30;20440;-90
2022/07/16 11:27:29;;;;;;;4.63;1.40;;;;;;;24.75;35.27;102408.13;4730846;30;20358;-89
2022/07/16 11:30:00;;;;;;;3.80;1.35;;;;;;;24.56;33.20;102407.44;4753805;30;20385;-90
2022/07/16 11:32:26;;;;;;;2.95;1.23;;;;;;;24.50;34.99;102408.66;4754408;30;20067;-90
2022/07/16 11:34:53;;;;;;;5.25;1.20;;;;;;;24.54;33.48;102406.66;4726796;30;20040;-87
2022/07/16 11:37:19;;;;;;;2.97;1.20;;;;;;;24.90;34.38;102411.81;4739192;30;20040;-91